createdAt,value
2018-03-01T00:02:12.261Z,-10.00
2018-03-01T00:05:22.794Z,-10.10
2018-03-01T00:08:33.233Z,-10.10
2018-03-01T00:11:43.237Z,-10.10
2018-03-01T00:14:53.412Z,-10.10
2018-03-01T00:18:03.497Z,-10.10
2018-03-01T00:21:13.663Z,-10.10
2018-03-01T00:24:23.553Z,-10.10
2018-03-01T00:27:33.861Z,-10.10
2018-03-01T00:30:44.546Z,-10.10
2018-03-01T00:33:55.834Z,-10.10
2018-03-01T00:37:06.317Z,-10.10
2018-03-01T00:40:16.226Z,-10.10
2018-03-01T00:43:26.460Z,-10.10
2018-03-01T00:46:36.604Z,-10.10
2018-03-01T00:49:46.412Z,-10.10
2018-03-01T00:52:56.151Z,-10.10
2018-03-01T00:56:06.193Z,-10.10
2018-03-01T00:59:17.579Z,-10.10
2018-03-01T01:02:27.587Z,-10.10
2018-03-01T01:05:37.743Z,-10.10
2018-03-01T01:08:47.658Z,-10.20
2018-03-01T01:11:57.805Z,-10.20
2018-03-01T01:15:08.040Z,-10.20
2018-03-01T01:18:18.085Z,-10.20
2018-03-01T01:21:28.363Z,-10.20
2018-03-01T01:24:38.618Z,-10.20
2018-03-01T01:27:48.944Z,-10.20
2018-03-01T01:30:58.670Z,-10.20
2018-03-01T01:34:09.053Z,-10.20
2018-03-01T01:37:19.501Z,-10.20
2018-03-01T01:40:29.511Z,-10.20
2018-03-01T01:43:39.767Z,-10.20
2018-03-01T01:46:49.772Z,-10.30
2018-03-01T01:50:00.165Z,-10.30
2018-03-01T01:53:10.773Z,-10.30
2018-03-01T01:56:20.690Z,-10.30
2018-03-01T01:59:31.123Z,-10.30
2018-03-01T02:02:41.966Z,-10.40
2018-03-01T02:05:52.404Z,-10.40
2018-03-01T02:09:03.264Z,-10.40
2018-03-01T02:12:13.382Z,-10.40
2018-03-01T02:15:23.445Z,-10.40
2018-03-01T02:18:33.608Z,-10.50
2018-03-01T02:21:43.446Z,-10.50
2018-03-01T02:24:54.360Z,-10.50
2018-03-01T02:28:04.702Z,-10.50
2018-03-01T02:31:15.045Z,-10.50
2018-03-01T02:34:25.276Z,-10.50
2018-03-01T02:37:35.819Z,-10.50
2018-03-01T02:40:46.000Z,-10.50
2018-03-01T02:43:57.171Z,-10.60
2018-03-01T02:47:07.721Z,-10.60
2018-03-01T02:50:17.898Z,-10.60
2018-03-01T02:53:28.378Z,-10.60
2018-03-01T02:56:38.099Z,-10.60
2018-03-01T02:59:48.798Z,-10.60
2018-03-01T03:02:58.854Z,-10.60
2018-03-01T03:06:09.936Z,-10.70
2018-03-01T03:09:20.114Z,-10.70
2018-03-01T03:12:30.232Z,-10.70
2018-03-01T03:15:40.142Z,-10.70
2018-03-01T03:18:50.125Z,-10.70
2018-03-01T03:21:59.376Z,-10.70
2018-03-01T03:25:09.263Z,-10.70
2018-03-01T03:28:19.873Z,-10.80
2018-03-01T03:31:29.999Z,-10.80
2018-03-01T03:34:39.951Z,-10.80
2018-03-01T03:37:49.786Z,-10.80
2018-03-01T03:41:00.277Z,-10.80
2018-03-01T03:44:10.346Z,-10.80
2018-03-01T03:47:20.382Z,-10.80
2018-03-01T03:50:30.250Z,-10.80
2018-03-01T03:53:40.132Z,-10.80
2018-03-01T03:56:50.500Z,-10.90
2018-03-01T04:00:00.875Z,-10.90
2018-03-01T04:03:11.151Z,-10.90
2018-03-01T04:06:21.567Z,-11.00
2018-03-01T04:09:31.958Z,-11.00
2018-03-01T04:12:42.108Z,-11.00
2018-03-01T04:15:52.803Z,-11.00
2018-03-01T04:19:02.814Z,-11.00
2018-03-01T04:22:13.604Z,-11.00
2018-03-01T04:25:24.011Z,-11.00
2018-03-01T04:28:34.495Z,-11.00
2018-03-01T04:31:45.042Z,-11.00
2018-03-01T04:34:55.304Z,-11.10
2018-03-01T04:38:05.979Z,-11.10
2018-03-01T04:41:17.195Z,-11.10
2018-03-01T04:44:27.520Z,-11.10
2018-03-01T04:47:37.717Z,-11.10
2018-03-01T04:50:48.167Z,-11.10
2018-03-01T04:53:58.218Z,-11.10
2018-03-01T04:57:08.209Z,-11.10
2018-03-01T05:00:18.440Z,-11.10
2018-03-01T05:03:28.557Z,-11.10
2018-03-01T05:06:39.549Z,-11.10
2018-03-01T05:09:49.896Z,-11.10
2018-03-01T05:13:00.531Z,-11.20
2018-03-01T05:16:10.853Z,-11.20
2018-03-01T05:19:22.316Z,-11.20
2018-03-01T05:22:33.723Z,-11.20
2018-03-01T05:25:45.013Z,-11.20
2018-03-01T05:28:55.273Z,-11.20
2018-03-01T05:32:05.682Z,-11.20
2018-03-01T05:35:16.111Z,-11.20
2018-03-01T05:38:26.074Z,-11.10
2018-03-01T05:41:35.916Z,-11.10
2018-03-01T05:44:45.966Z,-11.20
2018-03-01T05:47:56.239Z,-11.30
2018-03-01T05:51:05.982Z,-11.30
2018-03-01T05:54:16.313Z,-11.30
2018-03-01T05:57:26.335Z,-11.30
2018-03-01T06:00:36.469Z,-11.30
2018-03-01T06:03:47.533Z,-11.30
2018-03-01T06:06:57.372Z,-11.30
2018-03-01T06:10:07.683Z,-11.30
2018-03-01T06:13:18.290Z,-11.30
2018-03-01T06:16:28.167Z,-11.30
2018-03-01T06:19:38.611Z,-11.30
2018-03-01T06:22:48.902Z,-11.30
2018-03-01T06:26:00.043Z,-11.20
2018-03-01T06:29:10.941Z,-11.20
2018-03-01T06:32:21.230Z,-11.20
2018-03-01T06:35:31.398Z,-11.10
2018-03-01T06:38:42.094Z,-11.10
2018-03-01T06:41:53.273Z,-10.90
2018-03-01T06:45:04.346Z,-10.90
2018-03-01T06:48:14.678Z,-10.90
2018-03-01T06:51:24.599Z,-10.80
2018-03-01T06:54:34.717Z,-10.80
2018-03-01T06:57:44.688Z,-10.70
2018-03-01T07:00:54.675Z,-10.60
2018-03-01T07:04:04.568Z,-10.50
2018-03-01T07:07:14.703Z,-10.50
2018-03-01T07:10:24.760Z,-10.40
2018-03-01T07:13:34.744Z,-10.40
2018-03-01T07:16:44.896Z,-10.30
2018-03-01T07:19:56.124Z,-10.20
2018-03-01T07:23:06.661Z,-10.20
2018-03-01T07:26:17.090Z,-10.20
2018-03-01T07:29:27.045Z,-10.10
2018-03-01T07:32:37.481Z,-10.00
2018-03-01T07:35:47.432Z,-9.90
2018-03-01T07:38:57.714Z,-9.80
2018-03-01T07:42:07.435Z,-9.70
2018-03-01T07:45:17.536Z,-9.60
2018-03-01T07:48:27.695Z,-9.60
2018-03-01T07:51:37.616Z,-9.60
2018-03-01T07:54:48.142Z,-9.50
2018-03-01T07:57:58.363Z,-9.40
2018-03-01T08:01:08.472Z,-9.30
2018-03-01T08:04:18.557Z,-9.30
2018-03-01T08:07:28.756Z,-9.20
2018-03-01T08:10:38.805Z,-9.10
2018-03-01T08:13:49.486Z,-9.00
2018-03-01T08:16:59.672Z,-8.90
2018-03-01T08:20:09.401Z,-8.80
2018-03-01T08:23:20.221Z,-8.70
2018-03-01T08:26:30.625Z,-8.80
2018-03-01T08:29:41.677Z,-8.60
2018-03-01T08:32:52.370Z,-8.60
2018-03-01T08:36:02.555Z,-8.50
2018-03-01T08:39:12.601Z,-8.40
2018-03-01T08:42:23.193Z,-8.20
2018-03-01T08:45:33.713Z,-8.30
2018-03-01T08:48:43.741Z,-8.10
2018-03-01T08:51:54.714Z,-8.00
2018-03-01T08:55:04.338Z,-8.10
2018-03-01T08:58:14.595Z,-7.90
2018-03-01T09:01:24.790Z,-7.80
2018-03-01T09:04:34.952Z,-7.60
2018-03-01T09:07:45.045Z,-7.60
2018-03-01T09:10:55.841Z,-7.60
2018-03-01T09:14:06.134Z,-7.40
2018-03-01T09:17:16.558Z,-7.40
2018-03-01T09:20:26.878Z,-7.30
2018-03-01T09:23:37.017Z,-7.20
2018-03-01T09:26:47.651Z,-7.10
2018-03-01T09:29:57.664Z,-7.10
2018-03-01T09:33:07.652Z,-7.00
2018-03-01T09:36:17.978Z,-6.90
2018-03-01T09:39:28.351Z,-6.80
2018-03-01T09:42:38.261Z,-6.70
2018-03-01T09:45:48.663Z,-6.50
2018-03-01T09:48:58.919Z,-6.40
2018-03-01T09:52:08.955Z,-6.40
2018-03-01T09:55:19.549Z,-6.40
2018-03-01T09:58:29.784Z,-6.30
2018-03-01T10:01:39.747Z,-6.20
2018-03-01T10:04:50.037Z,-6.10
2018-03-01T10:08:00.075Z,-5.90
2018-03-01T10:11:10.499Z,-6.00
2018-03-01T10:14:20.553Z,-5.90
2018-03-01T10:17:30.440Z,-5.80
2018-03-01T10:20:41.025Z,-5.70
2018-03-01T10:23:51.212Z,-5.60
2018-03-01T10:27:01.956Z,-5.30
2018-03-01T10:30:13.253Z,-5.30
2018-03-01T10:33:23.716Z,-5.30
2018-03-01T10:36:33.953Z,-5.10
2018-03-01T10:39:44.418Z,-5.00
2018-03-01T10:42:54.406Z,-4.90
2018-03-01T10:46:04.258Z,-4.90
2018-03-01T10:49:14.497Z,-4.90
2018-03-01T10:52:24.877Z,-4.90
2018-03-01T10:55:35.057Z,-4.80
2018-03-01T10:58:45.476Z,-4.70
2018-03-01T11:01:59.947Z,-4.40
2018-03-01T11:05:10.299Z,-4.50
2018-03-01T11:08:20.448Z,-4.20
2018-03-01T11:11:30.612Z,-4.20
2018-03-01T11:14:40.800Z,-4.00
2018-03-01T11:17:51.271Z,-4.10
2018-03-01T11:21:00.913Z,-4.00
2018-03-01T11:24:10.694Z,-3.90
2018-03-01T11:27:20.590Z,-3.70
2018-03-01T11:30:30.817Z,-3.80
2018-03-01T11:33:42.145Z,-3.60
2018-03-01T11:36:52.808Z,-3.50
2018-03-01T11:40:02.956Z,-3.40
2018-03-01T11:43:12.982Z,-3.40
2018-03-01T11:46:22.872Z,-3.40
2018-03-01T11:49:32.777Z,-3.30
2018-03-01T11:52:43.191Z,-3.10
2018-03-01T11:55:53.476Z,-3.10
2018-03-01T11:59:04.351Z,-2.90
2018-03-01T12:02:15.724Z,-2.90
2018-03-01T12:05:26.132Z,-2.90
2018-03-01T12:08:36.482Z,-2.80
2018-03-01T12:11:46.901Z,-2.90
2018-03-01T12:14:57.406Z,-2.80
2018-03-01T12:18:07.336Z,-2.80
2018-03-01T12:21:17.769Z,-2.80
2018-03-01T12:24:27.831Z,-2.80
2018-03-01T12:27:38.409Z,-2.60
2018-03-01T12:30:48.488Z,-2.60
2018-03-01T12:33:58.718Z,-2.50
2018-03-01T12:37:09.269Z,-2.50
2018-03-01T12:40:19.972Z,-2.40
2018-03-01T12:43:30.512Z,-2.20
2018-03-01T12:46:41.305Z,-2.00
2018-03-01T12:49:51.283Z,-2.00
2018-03-01T12:53:02.030Z,-2.00
2018-03-01T12:56:12.453Z,-2.00
2018-03-01T12:59:22.383Z,-2.00
2018-03-01T13:02:32.392Z,-1.90
2018-03-01T13:05:41.997Z,-1.80
2018-03-01T13:08:52.363Z,-1.80
2018-03-01T13:12:02.985Z,-1.90
2018-03-01T13:15:13.497Z,-2.00
2018-03-01T13:18:24.963Z,-1.90
2018-03-01T13:21:36.033Z,-1.90
2018-03-01T13:24:46.292Z,-1.90
2018-03-01T13:27:56.180Z,-1.80
2018-03-01T13:34:47.934Z,-1.80
2018-03-01T13:37:58.738Z,-1.70
2018-03-01T13:41:08.374Z,-1.50
2018-03-01T13:44:18.368Z,-1.70
2018-03-01T13:47:28.798Z,-1.60
2018-03-01T13:50:39.183Z,-1.60
2018-03-01T13:53:49.038Z,-1.50
2018-03-01T13:56:59.189Z,-1.50
2018-03-01T14:00:09.749Z,-1.40
2018-03-01T14:03:20.032Z,-1.50
2018-03-01T14:06:30.688Z,-1.20
2018-03-01T14:09:40.881Z,-1.10
2018-03-01T14:12:56.236Z,-1.10
2018-03-01T14:16:06.389Z,-1.00
2018-03-01T14:22:59.115Z,-0.70
2018-03-01T14:26:11.045Z,-0.80
2018-03-01T14:29:27.071Z,-0.70
2018-03-01T14:32:38.665Z,-0.60
2018-03-01T14:35:48.995Z,-0.60
2018-03-01T14:38:59.667Z,-0.70
2018-03-01T14:42:09.814Z,-0.70
2018-03-01T14:45:20.494Z,-0.90
2018-03-01T14:48:30.988Z,-1.00
2018-03-01T14:51:41.724Z,-1.30
2018-03-01T14:54:52.032Z,-1.40
2018-03-01T14:58:02.722Z,-1.60
2018-03-01T15:01:12.923Z,-1.70
2018-03-01T15:04:22.820Z,-1.70
2018-03-01T15:07:33.796Z,-2.00
2018-03-01T15:10:44.439Z,-2.20
2018-03-01T15:13:54.681Z,-2.20
2018-03-01T15:17:05.089Z,-2.20
2018-03-01T15:20:15.084Z,-2.10
2018-03-01T15:23:25.666Z,-2.10
2018-03-01T15:26:35.861Z,-2.00
2018-03-01T15:29:45.968Z,-1.80
2018-03-01T15:32:57.317Z,-2.50
2018-03-01T15:36:07.509Z,-2.50
2018-03-01T15:39:17.804Z,-2.80
2018-03-01T15:42:28.236Z,-3.00
2018-03-01T15:45:37.997Z,-3.20
2018-03-01T15:48:48.829Z,-3.40
2018-03-01T15:51:59.294Z,-3.40
2018-03-01T15:55:11.377Z,-3.50
2018-03-01T15:58:22.128Z,-3.50
2018-03-01T16:01:32.035Z,-3.60
2018-03-01T16:04:42.138Z,-3.60
2018-03-01T16:07:53.257Z,-3.80
2018-03-01T16:11:03.815Z,-3.80
2018-03-01T16:14:13.956Z,-3.80
2018-03-01T16:17:23.804Z,-4.00
2018-03-01T16:20:34.062Z,-4.10
2018-03-01T16:23:44.341Z,-4.10
2018-03-01T16:26:54.130Z,-4.20
2018-03-01T16:30:03.914Z,-4.30
2018-03-01T16:33:14.151Z,-4.30
2018-03-01T16:36:24.291Z,-4.40
2018-03-01T16:39:34.525Z,-4.40
2018-03-01T16:42:44.268Z,-4.50
2018-03-01T16:45:54.131Z,-4.60
2018-03-01T16:49:04.317Z,-4.60
2018-03-01T16:52:14.943Z,-4.70
2018-03-01T16:55:25.879Z,-4.80
2018-03-01T16:58:36.226Z,-4.80
2018-03-01T17:01:46.106Z,-4.90
2018-03-01T17:04:56.267Z,-4.90
2018-03-01T17:08:07.301Z,-5.00
2018-03-01T17:11:17.362Z,-5.00
2018-03-01T17:14:27.871Z,-5.10
2018-03-01T17:17:38.360Z,-5.10
2018-03-01T17:20:49.497Z,-5.20
2018-03-01T17:23:59.544Z,-5.20
2018-03-01T17:27:10.768Z,-5.30
2018-03-01T17:30:20.900Z,-5.30
2018-03-01T17:33:31.253Z,-5.40
2018-03-01T17:36:41.802Z,-5.40
2018-03-01T17:39:52.548Z,-5.40
2018-03-01T17:43:02.770Z,-5.50
2018-03-01T17:46:12.861Z,-5.50
2018-03-01T17:49:22.920Z,-5.50
2018-03-01T17:52:33.503Z,-5.60
2018-03-01T17:55:44.502Z,-5.60
2018-03-01T17:58:54.825Z,-5.60
2018-03-01T18:02:04.940Z,-5.60
2018-03-01T18:05:15.584Z,-5.60
2018-03-01T18:08:26.358Z,-5.70
2018-03-01T18:11:37.084Z,-5.70
2018-03-01T18:14:47.343Z,-5.70
2018-03-01T18:17:58.253Z,-5.80
2018-03-01T18:21:09.709Z,-5.80
2018-03-01T18:24:19.846Z,-5.80
2018-03-01T18:27:30.564Z,-5.90
2018-03-01T18:30:41.367Z,-5.90
2018-03-01T18:33:51.203Z,-5.90
2018-03-01T18:37:01.369Z,-6.00
2018-03-01T18:40:12.011Z,-5.90
2018-03-01T18:43:23.364Z,-5.90
2018-03-01T18:46:33.977Z,-5.90
2018-03-01T18:49:44.764Z,-6.00
2018-03-01T18:52:55.512Z,-6.00
2018-03-01T18:56:06.369Z,-5.90
2018-03-01T18:59:16.504Z,-5.90
2018-03-01T19:02:26.651Z,-5.80
2018-03-01T19:05:37.291Z,-5.90
2018-03-01T19:08:48.210Z,-5.90
2018-03-01T19:11:59.188Z,-5.90
2018-03-01T19:15:09.927Z,-6.00
2018-03-01T19:18:19.932Z,-5.90
2018-03-01T19:21:30.333Z,-6.00
2018-03-01T19:24:40.434Z,-6.00
2018-03-01T19:27:50.647Z,-5.90
2018-03-01T19:31:01.241Z,-6.00
2018-03-01T19:34:12.847Z,-6.00
2018-03-01T19:37:24.415Z,-6.10
2018-03-01T19:40:34.602Z,-6.10
2018-03-01T19:43:44.478Z,-6.10
2018-03-01T19:46:54.429Z,-6.10
2018-03-01T19:50:05.268Z,-6.10
2018-03-01T19:53:15.185Z,-6.20
2018-03-01T19:56:24.960Z,-6.10
2018-03-01T19:59:34.851Z,-6.20
2018-03-01T20:02:46.387Z,-6.20
2018-03-01T20:05:56.732Z,-6.20
2018-03-01T20:09:07.328Z,-6.30
2018-03-01T20:12:18.068Z,-6.20
2018-03-01T20:15:28.440Z,-6.20
2018-03-01T20:18:38.372Z,-6.30
2018-03-01T20:21:48.407Z,-6.30
2018-03-01T20:24:58.348Z,-6.30
2018-03-01T20:28:08.676Z,-6.40
2018-03-01T20:31:19.011Z,-6.40
2018-03-01T20:34:29.114Z,-6.50
2018-03-01T20:37:40.759Z,-6.50
2018-03-01T20:40:51.506Z,-6.50
2018-03-01T20:44:01.676Z,-6.50
2018-03-01T20:47:12.189Z,-6.50
2018-03-01T20:50:22.251Z,-6.70
2018-03-01T20:53:33.663Z,-6.70
2018-03-01T20:56:44.143Z,-6.80
2018-03-01T20:59:54.815Z,-6.90
2018-03-01T21:03:05.166Z,-6.90
2018-03-01T21:06:15.743Z,-6.90
2018-03-01T21:09:25.916Z,-6.90
2018-03-01T21:12:36.196Z,-7.00
2018-03-01T21:15:46.731Z,-7.00
2018-03-01T21:18:57.019Z,-7.00
2018-03-01T21:22:07.365Z,-7.10
2018-03-01T21:25:17.599Z,-7.10
2018-03-01T21:28:27.555Z,-7.10
2018-03-01T21:31:37.978Z,-7.10
2018-03-01T21:34:48.314Z,-7.00
2018-03-01T21:37:58.196Z,-7.10
2018-03-01T21:41:08.250Z,-7.10
2018-03-01T21:44:18.574Z,-7.10
2018-03-01T21:47:28.860Z,-7.10
2018-03-01T21:50:40.850Z,-7.10
2018-03-01T21:53:51.547Z,-7.20
2018-03-01T21:57:01.532Z,-7.20
2018-03-01T22:00:11.652Z,-7.20
2018-03-01T22:03:21.819Z,-7.20
2018-03-01T22:06:32.570Z,-7.30
2018-03-01T22:09:43.060Z,-7.20
2018-03-01T22:12:52.953Z,-7.30
2018-03-01T22:16:03.192Z,-7.30
2018-03-01T22:19:13.724Z,-7.30
2018-03-01T22:22:23.961Z,-7.30
2018-03-01T22:25:35.080Z,-7.30
2018-03-01T22:28:45.246Z,-7.30
2018-03-01T22:31:55.204Z,-7.30
2018-03-01T22:35:05.166Z,-7.40
2018-03-01T22:38:15.688Z,-7.30
2018-03-01T22:41:25.990Z,-7.40
2018-03-01T22:44:37.344Z,-7.40
2018-03-01T22:47:47.631Z,-7.40
2018-03-01T22:50:58.086Z,-7.40
2018-03-01T22:54:08.108Z,-7.40
2018-03-01T22:57:18.398Z,-7.50
2018-03-01T23:00:40.055Z,-7.50
2018-03-01T23:03:50.120Z,-7.50
2018-03-01T23:07:00.772Z,-7.50
2018-03-01T23:10:11.906Z,-7.50
2018-03-01T23:13:22.508Z,-7.50
2018-03-01T23:16:32.577Z,-7.50
2018-03-01T23:19:42.307Z,-7.60
2018-03-01T23:22:52.457Z,-7.60
2018-03-01T23:26:02.257Z,-7.60
2018-03-01T23:29:13.231Z,-7.60
2018-03-01T23:32:23.276Z,-7.70
2018-03-01T23:35:34.023Z,-7.70
2018-03-01T23:38:43.969Z,-7.70
2018-03-01T23:41:54.124Z,-7.70
2018-03-01T23:45:04.906Z,-7.80
2018-03-01T23:48:16.131Z,-7.80
2018-03-01T23:51:27.099Z,-7.70
2018-03-01T23:54:37.800Z,-7.80
2018-03-01T23:57:48.140Z,-7.80
